• Join FlightAware (Why Join?)
  • Login
  • US Flag 
12:34AM EDT


 

Airport Tracker/Info


-or-


 

Live Flight TrackerFlight Track Log ✈ N9791F ✈ 20-Jul-2013 ✈ KHUA - KHUA

Flight Track Log - Related Links

Times and Time Zones

All times are in EDT time to prevent confusion due to time zone crossing. See the N9791F flight status page for this flight to view local times or setup timezone preferences in your user account.

Time Position Orientation Groundspeed Altitude Reporting Facility
EDT Latitude Longitude Course Direction KTS MPH feet Rate Location/Type
11:53AM 34.6786 -86.6848 15° North  Level Estimated
11:54AM 34.6786 -86.6848 15° North  Level Estimated
11:55AM 34.6786 -86.6848 15° North  Level Estimated
11:56AM 34.6786 -86.6848 22° Northeast  Level Estimated
11:57AM 34.6786 -86.6848 17° North  Level Estimated
11:58AM 34.6786 -86.6848 17° North  Level Estimated
11:58AM 34.9575 -86.6275 14° North 118 136 5,000  Level Memphis Center
11:59AM 34.6786 -86.6848 13° North  Level Estimated
11:59AM 34.9861 -86.6108 26° Northeast 129 148 4,900  Level Memphis Center
12:00PM 34.6786 -86.6848 14° North  Level Estimated
12:00PM 35.0172 -86.5994 17° North 124 143 5,000  Level Memphis Center
12:01PM 34.6786 -86.6848 14° North  Level Estimated
12:01PM 35.0458 -86.5803 29° Northeast 118 136 5,000  Level Memphis Center
12:02PM 34.6786 -86.6848 14° North  Level Estimated
12:02PM 35.0808 -86.5711 12° North 118 136 4,900  Level Memphis Center
12:03PM 34.6786 -86.6848 14° North  Level Estimated
12:03PM 35.1142 -86.5647 North 118 136 5,000  Level Memphis Center
12:04PM 35.1453 -86.5581 10° North 118 136 5,000  Level Memphis Center
12:05PM 35.1781 -86.5439 19° North 118 136 5,000  Level Memphis Center
12:06PM 35.2108 -86.5247 26° Northeast 123 142 5,000  Level Memphis Center
12:07PM 35.2439 -86.5078 23° Northeast 123 142 5,000 -180 Level Memphis Center
12:08PM 35.2744 -86.4861 30° Northeast 128 147 4,700 -540 Descending Memphis Center
12:09PM 35.3031 -86.4694 25° Northeast 122 140 4,000 -600 Descending Memphis Center
12:10PM 35.3361 -86.4578 16° North 122 140 3,500 -600 Descending Memphis Center
12:11PM 35.3628 -86.4439 23° Northeast 122 140 2,900 720 Descending Memphis Center
12:12PM 35.3978 -86.4294 19° North 122 140 5,000 1,020 Climbing Memphis Center
12:13PM 35.4286 -86.4153 21° North 122 140 5,000  Level Memphis Center
12:14PM 35.4533 -86.4039 21° North 122 140 5,000  Level Memphis Center
12:15PM 35.4586 -86.4394 280° West 122 140 5,000  Level Memphis Center
12:16PM 35.4836 -86.4381 North 122 140 5,000  Level Memphis Center
12:17PM 35.5147 -86.4367 North 122 140 5,000  Level Memphis Center
12:18PM 35.5461 -86.4353 North 122 140 5,000 -1,380 Level Memphis Center
12:19PM 35.6069 -86.4450 353° North 115 132 2,300 -1,140 Descending Memphis Center
12:20PM 35.6197 -86.4597 317° Northwest 74 85 2,800 480 Climbing Memphis Center
12:21PM 35.5994 -86.4736 209° Southwest 72 83 3,300 540 Climbing Memphis Center
12:22PM 35.5744 -86.4797 191° South 84 97 3,900 300 Climbing Memphis Center
12:23PM 35.5475 -86.4786 178° South 90 104 4,000  Climbing Memphis Center
12:24PM 35.5161 -86.4775 178° South 105 121 3,900 -60 Descending Memphis Center
12:25PM 35.4939 -86.4989 218° Southwest 99 114 3,900  Level Memphis Center
12:26PM 35.4689 -86.5025 187° South 99 114 4,000  Climbing Memphis Center
12:27PM 35.4442 -86.5139 201° Southwest 99 114 4,000 -60 Level Memphis Center
12:28PM 35.4172 -86.5228 195° South 104 120 3,900  Descending Memphis Center
12:29PM 35.3906 -86.5342 199° South 104 120 4,000  Climbing Memphis Center
12:30PM 35.3639 -86.5481 203° Southwest 104 120 4,000 -60 Level Memphis Center
12:31PM 35.3347 -86.5469 178° South 104 120 3,900 -60 Descending Memphis Center
12:32PM 35.3097 -86.5456 177° South 104 120 3,900  Level Memphis Center
12:33PM 35.2847 -86.5492 187° South 104 120 4,000  Climbing Memphis Center
12:34PM 35.2578 -86.5556 191° South 104 120 4,000  Level Memphis Center
12:35PM 35.2308 -86.5619 191° South 99 114 4,000  Level Memphis Center
12:36PM 35.2061 -86.5706 196° South 104 120 4,000  Level Memphis Center
12:37PM 35.1769 -86.5744 186° South 104 120 4,000  Level Memphis Center
12:38PM 35.1522 -86.5833 196° South 104 120 4,000  Level Memphis Center
12:39PM 35.1231 -86.5844 182° South 104 120 4,000 -180 Level Memphis Center
12:40PM 35.0983 -86.5983 205° Southwest 104 120 3,700 -360 Descending Memphis Center
12:41PM 35.0739 -86.6147 209° Southwest 104 120 3,300 -420 Descending Memphis Center
12:42PM 35.0472 -86.6261 199° South 104 120 2,900 -180 Descending Memphis Center
12:43PM 35.0247 -86.6397 206° Southwest 104 120 3,000  Climbing Memphis Center
12:44PM 35.0000 -86.6533 204° Southwest 104 120 2,900  Descending Memphis Center
12:45PM 34.9733 -86.6697 207° Southwest 104 120 3,000  Climbing Memphis Center
12:46PM 34.9486 -86.6836 205° Southwest 109 125 2,900  Descending Memphis Center
12:47PM 34.9239 -86.6947 200° South 109 125 3,000 60 Climbing Memphis Center
12:49PM 34.8668 -86.6664 158° South  Level FlightAware Approximate